createdAt,value
2022-07-25T00:02:16.127Z,24.39
2022-07-25T00:04:43.610Z,24.40
2022-07-25T00:07:11.628Z,24.59
2022-07-25T00:09:39.074Z,24.70
2022-07-25T00:12:06.808Z,24.53
2022-07-25T00:14:35.086Z,24.26
2022-07-25T00:17:02.481Z,24.33
2022-07-25T00:19:29.660Z,24.48
2022-07-25T00:21:57.573Z,24.57
2022-07-25T00:24:24.854Z,24.66
2022-07-25T00:26:52.173Z,24.58
2022-07-25T00:29:19.399Z,24.25
2022-07-25T00:31:46.693Z,24.28
2022-07-25T00:34:16.863Z,24.31
2022-07-25T00:36:44.094Z,24.43
2022-07-25T00:39:11.408Z,24.04
2022-07-25T00:41:41.658Z,23.89
2022-07-25T00:44:09.058Z,23.85
2022-07-25T00:46:39.567Z,24.36
2022-07-25T00:49:06.823Z,24.06
2022-07-25T00:51:34.464Z,23.87
2022-07-25T00:54:01.823Z,23.33
2022-07-25T00:56:29.558Z,23.54
2022-07-25T00:58:56.838Z,23.79
2022-07-25T01:01:24.400Z,23.86
2022-07-25T01:03:51.880Z,23.65
2022-07-25T01:06:21.110Z,23.68
2022-07-25T01:08:53.321Z,23.71
2022-07-25T01:11:22.298Z,23.58
2022-07-25T01:13:49.462Z,23.67
2022-07-25T01:16:17.317Z,23.78
2022-07-25T01:18:45.456Z,23.89
2022-07-25T01:21:12.877Z,23.73
2022-07-25T01:23:41.421Z,23.96
2022-07-25T01:26:09.245Z,23.63
2022-07-25T01:28:36.603Z,23.48
2022-07-25T01:31:04.073Z,23.38
2022-07-25T01:33:31.413Z,23.71
2022-07-25T01:35:58.825Z,23.93
2022-07-25T01:38:26.378Z,23.69
2022-07-25T01:40:53.559Z,23.65
2022-07-25T01:43:20.927Z,23.34
2022-07-25T01:45:49.014Z,23.29
2022-07-25T01:48:16.611Z,23.66
2022-07-25T01:50:44.924Z,23.46
2022-07-25T01:53:12.575Z,23.15
2022-07-25T01:55:39.692Z,23.32
2022-07-25T01:58:07.453Z,23.35
2022-07-25T02:00:35.665Z,23.34
2022-07-25T02:03:29.404Z,23.37
2022-07-25T02:06:07.616Z,23.26
2022-07-25T02:08:35.692Z,23.04
2022-07-25T02:11:03.524Z,23.01
2022-07-25T02:13:30.719Z,23.15
2022-07-25T02:15:58.933Z,22.87
2022-07-25T02:18:26.406Z,22.81
2022-07-25T02:20:53.902Z,22.82
2022-07-25T02:23:21.034Z,22.73
2022-07-25T02:25:48.244Z,22.88
2022-07-25T02:28:15.462Z,22.82
2022-07-25T02:30:42.812Z,22.83
2022-07-25T02:33:10.004Z,23.01
2022-07-25T02:35:37.225Z,22.75
2022-07-25T02:38:04.464Z,22.65
2022-07-25T02:40:31.700Z,22.55
2022-07-25T02:42:59.115Z,22.86
2022-07-25T02:45:26.274Z,22.93
2022-07-25T02:47:53.467Z,22.46
2022-07-25T02:50:20.580Z,22.29
2022-07-25T02:52:47.726Z,22.32
2022-07-25T02:55:14.947Z,22.45
2022-07-25T02:57:42.093Z,22.22
2022-07-25T03:00:10.760Z,22.27
2022-07-25T03:02:38.262Z,22.22
2022-07-25T03:05:14.536Z,22.09
2022-07-25T03:07:44.632Z,21.96
2022-07-25T03:10:14.250Z,22.43
2022-07-25T03:12:44.086Z,22.49
2022-07-25T03:15:13.954Z,22.49
2022-07-25T03:17:42.160Z,22.39
2022-07-25T03:20:10.604Z,22.33
2022-07-25T03:22:38.132Z,22.22
2022-07-25T03:25:06.813Z,21.82
2022-07-25T03:27:43.405Z,22.00
2022-07-25T03:30:12.218Z,22.22
2022-07-25T03:32:41.102Z,22.30
2022-07-25T03:35:09.261Z,22.13
2022-07-25T03:37:36.708Z,22.07
2022-07-25T03:40:05.717Z,22.08
2022-07-25T03:42:35.442Z,22.03
2022-07-25T03:45:04.586Z,22.02
2022-07-25T03:47:32.025Z,22.11
2022-07-25T03:49:59.158Z,22.11
2022-07-25T03:52:26.278Z,22.25
2022-07-25T03:54:53.608Z,22.35
2022-07-25T03:57:21.112Z,22.18
2022-07-25T03:59:48.446Z,22.03
2022-07-25T04:02:15.742Z,21.76
2022-07-25T04:04:42.992Z,21.81
2022-07-25T04:07:10.149Z,21.97
2022-07-25T04:09:37.893Z,22.07
2022-07-25T04:12:05.939Z,22.14
2022-07-25T04:14:33.142Z,22.54
2022-07-25T04:17:00.652Z,22.16
2022-07-25T04:19:28.857Z,22.28
2022-07-25T04:21:56.396Z,22.24
2022-07-25T04:24:23.695Z,22.30
2022-07-25T04:26:50.867Z,22.14
2022-07-25T04:29:18.045Z,22.46
2022-07-25T04:31:45.395Z,22.53
2022-07-25T04:34:12.621Z,22.67
2022-07-25T04:36:39.790Z,22.52
2022-07-25T04:39:06.974Z,23.02
2022-07-25T04:41:34.107Z,23.21
2022-07-25T04:44:01.285Z,24.00
2022-07-25T04:46:28.473Z,25.33
2022-07-25T04:48:55.735Z,26.22
2022-07-25T04:51:22.967Z,27.27
2022-07-25T04:53:50.373Z,27.90
2022-07-25T04:56:21.566Z,28.68
2022-07-25T04:58:49.308Z,29.30
2022-07-25T05:01:16.722Z,29.85
2022-07-25T05:03:49.683Z,30.51
2022-07-25T05:06:19.633Z,30.97
2022-07-25T05:08:48.136Z,31.38
2022-07-25T05:11:15.300Z,32.27
2022-07-25T05:13:42.508Z,32.31
2022-07-25T05:16:09.911Z,33.16
2022-07-25T05:18:37.065Z,33.64
2022-07-25T05:21:04.365Z,34.48
2022-07-25T05:23:31.510Z,35.40
2022-07-25T05:25:58.798Z,35.67
2022-07-25T05:28:26.289Z,35.87
2022-07-25T05:30:53.559Z,36.02
2022-07-25T05:33:20.931Z,36.74
2022-07-25T05:35:48.371Z,37.21
2022-07-25T05:38:15.648Z,37.61
2022-07-25T05:40:42.916Z,37.48
2022-07-25T05:43:10.116Z,38.38
2022-07-25T05:45:37.762Z,38.64
2022-07-25T05:48:05.172Z,38.95
2022-07-25T05:50:32.430Z,38.97
2022-07-25T05:52:59.712Z,38.60
2022-07-25T05:55:26.907Z,39.63
2022-07-25T05:57:54.182Z,40.52
2022-07-25T06:00:21.420Z,40.99
2022-07-25T06:02:48.701Z,41.96
2022-07-25T06:05:16.037Z,41.74
2022-07-25T06:07:43.338Z,42.17
2022-07-25T06:10:10.622Z,43.19
2022-07-25T06:12:37.804Z,43.06
2022-07-25T06:15:06.850Z,43.58
2022-07-25T06:17:39.984Z,44.14
2022-07-25T06:20:08.289Z,44.81
2022-07-25T06:22:35.711Z,45.03
2022-07-25T06:25:03.770Z,45.04
2022-07-25T06:27:30.978Z,45.07
2022-07-25T06:29:58.350Z,44.74
2022-07-25T06:32:25.543Z,45.47
2022-07-25T06:34:52.756Z,46.89
2022-07-25T06:37:19.997Z,46.42
2022-07-25T06:39:47.262Z,46.03
2022-07-25T06:42:14.484Z,46.20
2022-07-25T06:44:44.100Z,46.39
2022-07-25T06:47:12.936Z,46.71
2022-07-25T06:49:44.670Z,46.74
2022-07-25T06:52:11.841Z,45.60
2022-07-25T06:54:39.396Z,45.14
2022-07-25T06:57:06.650Z,45.19
2022-07-25T06:59:33.901Z,44.48
2022-07-25T07:02:01.148Z,45.15
2022-07-25T07:04:28.516Z,45.50
2022-07-25T07:06:55.697Z,45.19
2022-07-25T07:09:22.961Z,45.57
2022-07-25T07:11:50.100Z,45.87
2022-07-25T07:14:17.284Z,45.40
2022-07-25T07:16:44.561Z,45.54
2022-07-25T07:19:12.017Z,45.26
2022-07-25T07:21:39.274Z,46.41
2022-07-25T07:24:22.104Z,47.62
2022-07-25T07:26:54.164Z,47.70
2022-07-25T07:29:21.863Z,48.27
2022-07-25T07:31:49.653Z,48.65
2022-07-25T07:34:17.166Z,49.42
2022-07-25T07:36:44.445Z,50.16
2022-07-25T07:39:12.009Z,51.38
2022-07-25T07:41:39.970Z,51.83
2022-07-25T07:44:07.957Z,51.93
2022-07-25T07:46:35.170Z,51.45
2022-07-25T07:49:02.486Z,52.66
2022-07-25T07:51:29.780Z,52.69
2022-07-25T07:54:15.762Z,51.92
2022-07-25T07:56:43.019Z,52.50
2022-07-25T07:59:10.542Z,51.54
2022-07-25T08:01:38.078Z,49.85
2022-07-25T08:04:05.918Z,50.76
2022-07-25T08:06:33.304Z,51.23
2022-07-25T08:09:00.566Z,51.33
2022-07-25T08:11:27.737Z,52.70
2022-07-25T08:13:55.650Z,51.42
2022-07-25T08:16:22.925Z,52.17
2022-07-25T08:18:50.267Z,52.31
2022-07-25T08:21:17.546Z,52.36
2022-07-25T08:23:47.121Z,52.04
2022-07-25T08:26:14.481Z,51.26
2022-07-25T08:28:42.780Z,53.19
2022-07-25T08:31:10.330Z,52.80
2022-07-25T08:33:37.777Z,51.86
2022-07-25T08:36:05.926Z,52.41
2022-07-25T08:38:38.481Z,53.51
2022-07-25T08:41:06.312Z,53.38
2022-07-25T08:43:37.754Z,53.53
2022-07-25T08:46:06.957Z,51.94
2022-07-25T08:48:35.997Z,52.37
2022-07-25T08:51:04.098Z,53.11
2022-07-25T08:53:33.548Z,54.91
2022-07-25T08:56:11.136Z,55.81
2022-07-25T08:58:41.894Z,55.96
2022-07-25T09:01:13.269Z,56.48
2022-07-25T09:03:43.252Z,57.18
2022-07-25T09:06:23.124Z,57.38
2022-07-25T09:09:00.308Z,58.15
2022-07-25T09:11:35.255Z,58.41
2022-07-25T09:14:10.696Z,58.38
2022-07-25T09:16:43.193Z,57.92
2022-07-25T09:19:18.791Z,56.81
2022-07-25T09:22:10.066Z,55.51
2022-07-25T09:24:45.597Z,56.45
2022-07-25T09:27:13.156Z,56.35
2022-07-25T09:29:45.476Z,56.62
2022-07-25T09:32:23.110Z,57.48
2022-07-25T09:34:51.059Z,57.89
2022-07-25T09:37:27.257Z,57.58
2022-07-25T09:39:54.670Z,57.19
2022-07-25T09:42:32.408Z,55.46
2022-07-25T09:45:13.002Z,56.02
2022-07-25T09:47:58.535Z,57.79
2022-07-25T09:50:31.303Z,57.95
2022-07-25T09:53:02.540Z,57.79
2022-07-25T09:55:31.462Z,57.99
2022-07-25T09:57:59.055Z,57.00
2022-07-25T10:00:29.477Z,56.96
2022-07-25T10:03:40.841Z,56.72
2022-07-25T10:07:12.205Z,56.73
2022-07-25T10:09:54.066Z,57.35
2022-07-25T10:12:23.934Z,56.10
2022-07-25T10:15:13.237Z,55.55
2022-07-25T10:17:42.056Z,56.11
2022-07-25T10:20:10.982Z,56.52
2022-07-25T10:22:56.412Z,56.74
2022-07-25T10:25:25.614Z,57.77
2022-07-25T10:28:01.089Z,57.91
2022-07-25T10:30:40.829Z,57.80
2022-07-25T10:33:21.359Z,57.02
2022-07-25T10:35:48.518Z,57.43
2022-07-25T10:38:27.896Z,58.58
2022-07-25T10:41:02.092Z,59.53
2022-07-25T10:43:29.448Z,59.89
2022-07-25T10:46:00.185Z,59.75
2022-07-25T10:48:32.143Z,60.10
2022-07-25T10:51:07.028Z,59.93
2022-07-25T10:53:45.901Z,59.28
2022-07-25T10:56:20.885Z,60.25
2022-07-25T10:59:01.512Z,60.34
2022-07-25T11:01:33.981Z,60.80
2022-07-25T11:04:16.057Z,60.77
2022-07-25T11:06:43.890Z,59.98
2022-07-25T11:09:29.223Z,58.85
2022-07-25T11:11:59.466Z,58.08
2022-07-25T11:14:34.519Z,57.94
2022-07-25T11:17:20.321Z,58.92
2022-07-25T11:20:17.537Z,59.16
2022-07-25T11:22:54.347Z,59.20
2022-07-25T11:25:23.466Z,59.22
2022-07-25T11:27:59.046Z,58.50
2022-07-25T11:30:29.599Z,59.25
2022-07-25T11:33:01.547Z,59.07
2022-07-25T11:35:33.796Z,59.87
2022-07-25T11:38:03.292Z,60.55
2022-07-25T11:40:32.600Z,60.51
2022-07-25T11:43:01.079Z,58.93
2022-07-25T11:45:34.528Z,58.52
2022-07-25T11:48:12.574Z,57.56
2022-07-25T11:50:45.195Z,58.61
2022-07-25T11:53:17.158Z,60.03
2022-07-25T11:55:44.723Z,59.74
2022-07-25T11:58:14.295Z,58.92
2022-07-25T12:00:50.076Z,59.00
2022-07-25T12:03:21.146Z,58.90
2022-07-25T12:05:50.239Z,59.32
2022-07-25T12:08:21.155Z,59.25
2022-07-25T12:10:55.170Z,58.78
2022-07-25T12:13:26.366Z,58.70
2022-07-25T12:15:57.058Z,59.47
2022-07-25T12:18:26.761Z,60.31
2022-07-25T12:20:54.632Z,59.45
2022-07-25T12:23:22.234Z,57.70
2022-07-25T12:25:50.399Z,54.07
2022-07-25T12:28:50.848Z,51.21
2022-07-25T12:31:18.526Z,52.12
2022-07-25T12:33:45.880Z,51.30
2022-07-25T12:36:14.076Z,50.64
2022-07-25T12:38:41.455Z,49.83
2022-07-25T12:41:08.664Z,48.76
2022-07-25T12:43:39.252Z,48.34
2022-07-25T12:46:06.805Z,46.93
2022-07-25T12:48:34.343Z,46.42
2022-07-25T12:51:01.742Z,45.93
2022-07-25T12:53:29.041Z,45.65
2022-07-25T12:55:56.409Z,45.34
2022-07-25T12:58:23.774Z,45.11
2022-07-25T13:00:51.515Z,44.50
2022-07-25T13:03:18.806Z,43.42
2022-07-25T13:05:46.153Z,43.22
2022-07-25T13:08:13.400Z,42.52
2022-07-25T13:10:40.738Z,42.32
2022-07-25T13:13:07.917Z,42.79
2022-07-25T13:15:36.968Z,42.98
2022-07-25T13:18:04.530Z,43.04
2022-07-25T13:20:35.419Z,43.13
2022-07-25T13:23:03.370Z,43.40
2022-07-25T13:25:31.262Z,43.79
2022-07-25T13:27:58.534Z,45.35
2022-07-25T13:30:25.907Z,47.07
2022-07-25T13:32:54.098Z,48.16
2022-07-25T13:35:24.691Z,48.10
2022-07-25T13:37:56.637Z,48.30
2022-07-25T13:40:23.874Z,48.35
2022-07-25T13:42:51.047Z,47.50
2022-07-25T13:45:18.792Z,45.90
2022-07-25T13:47:47.001Z,44.47
2022-07-25T13:50:15.512Z,44.48
2022-07-25T13:52:42.731Z,43.73
2022-07-25T13:55:11.339Z,43.45
2022-07-25T13:57:38.814Z,43.48
2022-07-25T14:00:07.614Z,43.19
2022-07-25T14:02:34.955Z,42.10
2022-07-25T14:05:04.387Z,42.68
2022-07-25T14:07:31.768Z,43.40
2022-07-25T14:09:59.038Z,43.72
2022-07-25T14:12:26.410Z,44.28
2022-07-25T14:14:53.667Z,43.41
2022-07-25T14:17:23.814Z,43.73
2022-07-25T14:19:54.550Z,43.80
2022-07-25T14:22:24.838Z,43.61
2022-07-25T14:24:53.489Z,43.32
2022-07-25T14:27:20.700Z,42.76
2022-07-25T14:29:47.885Z,41.92
2022-07-25T14:32:15.292Z,41.65
2022-07-25T14:34:42.719Z,41.06
2022-07-25T14:37:10.023Z,40.61
2022-07-25T14:39:37.651Z,40.36
2022-07-25T14:42:05.108Z,41.10
2022-07-25T14:44:32.533Z,41.41
2022-07-25T14:47:06.801Z,41.19
2022-07-25T14:49:36.773Z,41.16
2022-07-25T14:52:04.492Z,41.36
2022-07-25T14:54:31.883Z,41.17
2022-07-25T14:56:59.177Z,41.09
2022-07-25T14:59:26.800Z,41.49
2022-07-25T15:01:54.953Z,41.83
2022-07-25T15:04:25.056Z,41.66
2022-07-25T15:06:53.312Z,41.87
2022-07-25T15:09:21.306Z,41.38
2022-07-25T15:11:49.291Z,41.39
2022-07-25T15:14:16.582Z,41.24
2022-07-25T15:16:44.175Z,40.63
2022-07-25T15:19:16.440Z,40.87
2022-07-25T15:21:45.478Z,41.15
2022-07-25T15:24:14.065Z,41.47
2022-07-25T15:26:41.430Z,41.09
2022-07-25T15:29:11.165Z,40.98
2022-07-25T15:31:38.761Z,40.92
2022-07-25T15:34:06.324Z,40.49
2022-07-25T15:36:33.612Z,40.03
2022-07-25T15:39:00.927Z,40.11
2022-07-25T15:41:28.202Z,39.84
2022-07-25T15:43:55.471Z,40.03
2022-07-25T15:46:22.788Z,40.07
2022-07-25T15:48:50.227Z,40.20
2022-07-25T15:51:17.762Z,39.67
2022-07-25T15:53:45.733Z,39.44
2022-07-25T15:56:21.010Z,39.41
2022-07-25T15:58:49.578Z,38.23
2022-07-25T16:01:17.068Z,38.54
2022-07-25T16:03:45.170Z,38.47
2022-07-25T16:06:16.977Z,38.46
2022-07-25T16:08:48.661Z,38.52
2022-07-25T16:11:24.537Z,38.40
2022-07-25T16:13:52.421Z,38.45
2022-07-25T16:16:22.058Z,38.20
2022-07-25T16:18:49.619Z,38.07
2022-07-25T16:21:17.100Z,37.84
2022-07-25T16:23:45.689Z,37.83
2022-07-25T16:26:13.774Z,37.83
2022-07-25T16:28:42.522Z,37.15
2022-07-25T16:31:10.233Z,37.05
2022-07-25T16:33:38.256Z,37.01
2022-07-25T16:36:06.913Z,36.73
2022-07-25T16:38:34.823Z,36.84
2022-07-25T16:41:02.056Z,36.83
2022-07-25T16:43:29.392Z,37.04
2022-07-25T16:45:56.663Z,37.11
2022-07-25T16:48:25.037Z,37.27
2022-07-25T16:50:52.564Z,37.09
2022-07-25T16:53:20.526Z,37.11
2022-07-25T16:55:47.855Z,36.66
2022-07-25T16:58:15.611Z,36.62
2022-07-25T17:00:43.620Z,36.41
2022-07-25T17:03:10.869Z,36.39
2022-07-25T17:05:38.344Z,36.25
2022-07-25T17:08:05.566Z,36.08
2022-07-25T17:10:32.775Z,36.14
2022-07-25T17:13:00.076Z,36.39
2022-07-25T17:15:27.308Z,36.49
2022-07-25T17:17:54.771Z,36.65
2022-07-25T17:20:22.178Z,36.97
2022-07-25T17:22:49.462Z,37.05
2022-07-25T17:25:16.733Z,37.05
2022-07-25T17:27:44.240Z,36.93
2022-07-25T17:30:12.432Z,37.02
2022-07-25T17:32:39.931Z,37.18
2022-07-25T17:35:07.879Z,36.82
2022-07-25T17:37:35.480Z,36.69
2022-07-25T17:40:04.073Z,36.73
2022-07-25T17:42:31.472Z,36.80
2022-07-25T17:44:58.795Z,36.63
2022-07-25T17:47:26.474Z,36.45
2022-07-25T17:52:50.906Z,36.21
2022-07-25T17:55:38.937Z,36.13
2022-07-25T17:58:26.952Z,36.03
2022-07-25T18:01:22.512Z,36.16
2022-07-25T18:03:56.334Z,36.20
2022-07-25T18:06:29.277Z,36.30
2022-07-25T18:08:57.953Z,36.05
2022-07-25T18:11:28.397Z,35.85
2022-07-25T18:13:56.013Z,35.61
2022-07-25T18:16:30.624Z,35.11
2022-07-25T18:19:31.741Z,34.59
2022-07-25T18:22:03.172Z,34.42
2022-07-25T18:24:38.410Z,34.50
2022-07-25T18:27:21.681Z,34.32
2022-07-25T18:29:49.769Z,34.13
2022-07-25T18:32:17.192Z,34.08
2022-07-25T18:34:44.521Z,34.03
2022-07-25T18:37:11.792Z,33.58
2022-07-25T18:39:40.607Z,33.30
2022-07-25T18:42:08.306Z,33.28
2022-07-25T18:44:35.524Z,33.29
2022-07-25T18:47:03.331Z,33.01
2022-07-25T18:49:30.709Z,32.98
2022-07-25T18:51:58.238Z,32.72
2022-07-25T18:54:25.796Z,32.75
2022-07-25T18:56:53.261Z,32.34
2022-07-25T18:59:28.514Z,32.15
2022-07-25T19:02:08.259Z,32.22
2022-07-25T19:04:35.994Z,32.11
2022-07-25T19:07:03.589Z,32.12
2022-07-25T19:09:30.832Z,32.03
2022-07-25T19:11:58.087Z,31.81
2022-07-25T19:14:27.344Z,32.06
2022-07-25T19:16:55.732Z,31.79
2022-07-25T19:19:23.917Z,31.69
2022-07-25T19:21:51.411Z,31.63
2022-07-25T19:24:19.256Z,31.46
2022-07-25T19:26:51.463Z,31.22
2022-07-25T19:29:20.933Z,31.13
2022-07-25T19:31:48.224Z,31.13
2022-07-25T19:34:15.634Z,31.16
2022-07-25T19:36:45.828Z,31.23
2022-07-25T19:39:14.035Z,31.15
2022-07-25T19:41:46.600Z,31.04
2022-07-25T19:44:15.106Z,31.03
2022-07-25T19:46:43.086Z,30.92
2022-07-25T19:49:10.815Z,30.86
2022-07-25T19:51:38.291Z,30.85
2022-07-25T19:54:08.267Z,30.59
2022-07-25T19:56:36.579Z,30.54
2022-07-25T19:59:04.651Z,30.47
2022-07-25T20:01:35.920Z,30.38
2022-07-25T20:04:05.968Z,30.34
2022-07-25T20:06:33.352Z,30.30
2022-07-25T20:09:06.743Z,30.27
2022-07-25T20:11:40.157Z,30.10
2022-07-25T20:14:09.562Z,30.07
2022-07-25T20:16:38.837Z,30.11
2022-07-25T20:19:11.303Z,29.96
2022-07-25T20:21:40.217Z,30.00
2022-07-25T20:24:08.296Z,29.77
2022-07-25T20:26:35.780Z,29.62
2022-07-25T20:29:04.981Z,29.67
2022-07-25T20:31:32.833Z,29.61
2022-07-25T20:34:00.323Z,29.46
2022-07-25T20:36:28.028Z,29.50
2022-07-25T20:38:55.414Z,29.49
2022-07-25T20:41:24.421Z,29.26
2022-07-25T20:43:52.237Z,29.25
2022-07-25T20:46:19.569Z,29.33
2022-07-25T20:48:53.646Z,29.23
2022-07-25T20:51:23.859Z,29.38
2022-07-25T20:53:51.646Z,29.30
2022-07-25T20:56:22.349Z,29.20
2022-07-25T20:58:50.615Z,28.97
2022-07-25T21:01:18.320Z,29.07
2022-07-25T21:03:45.862Z,28.86
2022-07-25T21:06:13.552Z,28.80
2022-07-25T21:08:41.011Z,28.75
2022-07-25T21:11:08.771Z,28.74
2022-07-25T21:13:37.306Z,28.67
2022-07-25T21:16:05.403Z,28.72
2022-07-25T21:18:33.264Z,28.75
2022-07-25T21:21:00.934Z,28.76
2022-07-25T21:23:28.960Z,28.70
2022-07-25T21:25:56.755Z,28.74
2022-07-25T21:28:24.443Z,28.54
2022-07-25T21:30:53.834Z,28.55
2022-07-25T21:33:21.897Z,28.64
2022-07-25T21:35:53.434Z,28.55
2022-07-25T21:38:26.436Z,28.50
2022-07-25T21:40:57.379Z,28.29
2022-07-25T21:43:28.125Z,28.31
2022-07-25T21:45:55.978Z,28.28
2022-07-25T21:48:43.889Z,28.18
2022-07-25T21:51:19.296Z,28.06
2022-07-25T21:53:53.349Z,27.90
2022-07-25T21:57:38.465Z,27.74
2022-07-25T22:01:21.538Z,27.87
2022-07-25T22:03:49.801Z,27.90
2022-07-25T22:06:42.778Z,27.76
2022-07-25T22:09:11.572Z,27.53
2022-07-25T22:11:46.131Z,27.45
2022-07-25T22:15:32.900Z,27.50
2022-07-25T22:19:20.756Z,27.44
2022-07-25T22:23:07.636Z,27.60
2022-07-25T22:26:56.885Z,27.41
2022-07-25T22:30:41.550Z,27.41
2022-07-25T22:34:24.177Z,27.05
2022-07-25T22:38:13.888Z,27.04
2022-07-25T22:41:57.009Z,27.06
2022-07-25T22:45:42.910Z,26.99
2022-07-25T22:49:26.193Z,27.05
2022-07-25T22:51:53.797Z,27.12
2022-07-25T22:54:21.129Z,26.96
2022-07-25T22:56:49.417Z,27.01
2022-07-25T22:59:17.640Z,27.07
2022-07-25T23:01:45.409Z,27.50
2022-07-25T23:04:13.247Z,27.45
2022-07-25T23:06:40.740Z,27.19
2022-07-25T23:09:09.354Z,27.23
2022-07-25T23:11:37.365Z,27.33
2022-07-25T23:14:04.688Z,27.36
2022-07-25T23:16:32.191Z,27.45
2022-07-25T23:18:59.563Z,27.36
2022-07-25T23:21:26.937Z,27.20
2022-07-25T23:23:55.307Z,27.23
2022-07-25T23:26:22.629Z,27.21
2022-07-25T23:28:50.242Z,27.03
2022-07-25T23:31:17.768Z,27.16
2022-07-25T23:33:45.115Z,27.27
2022-07-25T23:36:12.644Z,27.26
2022-07-25T23:38:39.991Z,27.09
2022-07-25T23:41:07.225Z,27.05
2022-07-25T23:43:57.039Z,27.01
2022-07-25T23:46:27.674Z,26.88
2022-07-25T23:48:58.671Z,26.96
2022-07-25T23:51:26.775Z,26.91
2022-07-25T23:53:54.495Z,26.79
2022-07-25T23:56:22.709Z,26.83
2022-07-25T23:58:51.302Z,26.77
